Chengde, China
Current Conditions -  °F | °C
As of 6:00 PM on Friday 19 Dec 2014 (Local Time) from ZBAA Reporting Station
Clear Clear  
Wind Chill: 22°   Ceiling: Unl
Heat Index: 34°   Visibility: 6mi
Dew Point: -4°   Wind: 20mph
Humidity: 20%   Direction: 320°NW
Pressure: 30.33"   Gusts: 31mph
Location:  40.96°N, 117.93°E
Report Text: ZBAA 191000Z 32009G14MPS CAVOK 01/M20 Q1027 NOSIG
Loading
Personal Weather Stations






























Interactive Weather Map New forecast layout! Learn more

10-Day Weather Forecast

Advertisements
Track Severe Weather on mobile